sensor_id;sensor_type;location;lat;lon;timestamp;pressure;altitude;pressure_sealevel;temperature;humidity
26487;BME280;14425;56.136;40.360;2023-05-20T00:00:06;100371.50;;;8.18;96.75
26487;BME280;14425;56.136;40.360;2023-05-20T00:02:33;100367.00;;;8.13;97.20
26487;BME280;14425;56.136;40.360;2023-05-20T00:04:58;100364.56;;;8.17;97.13
26487;BME280;14425;56.136;40.360;2023-05-20T00:07:24;100362.34;;;8.23;97.34
26487;BME280;14425;56.136;40.360;2023-05-20T00:09:50;100366.44;;;8.19;96.75
26487;BME280;14425;56.136;40.360;2023-05-20T00:12:16;100353.69;;;8.21;97.11
26487;BME280;14425;56.136;40.360;2023-05-20T00:14:41;100349.59;;;8.24;97.22
26487;BME280;14425;56.136;40.360;2023-05-20T00:17:07;100360.94;;;8.28;97.71
26487;BME280;14425;56.136;40.360;2023-05-20T00:19:32;100361.75;;;8.27;97.64
26487;BME280;14425;56.136;40.360;2023-05-20T00:21:57;100348.81;;;8.25;98.02
26487;BME280;14425;56.136;40.360;2023-05-20T00:24:24;100361.91;;;8.30;97.31
26487;BME280;14425;56.136;40.360;2023-05-20T00:26:49;100355.78;;;8.28;97.89
26487;BME280;14425;56.136;40.360;2023-05-20T00:29:15;100350.81;;;8.31;97.42
26487;BME280;14425;56.136;40.360;2023-05-20T00:31:40;100345.81;;;8.18;99.10
26487;BME280;14425;56.136;40.360;2023-05-20T00:34:06;100350.16;;;8.19;99.92
26487;BME280;14425;56.136;40.360;2023-05-20T00:36:34;100354.47;;;8.20;100.00
26487;BME280;14425;56.136;40.360;2023-05-20T00:39:00;100352.00;;;8.21;100.00
26487;BME280;14425;56.136;40.360;2023-05-20T00:41:26;100345.44;;;8.11;100.00
26487;BME280;14425;56.136;40.360;2023-05-20T00:43:55;100350.47;;;8.25;100.00
26487;BME280;14425;56.136;40.360;2023-05-20T00:46:25;100356.13;;;8.34;99.64
26487;BME280;14425;56.136;40.360;2023-05-20T00:48:52;100357.94;;;8.20;100.00
26487;BME280;14425;56.136;40.360;2023-05-20T00:51:17;100353.56;;;8.34;100.00
26487;BME280;14425;56.136;40.360;2023-05-20T00:53:44;100347.84;;;8.08;100.00
26487;BME280;14425;56.136;40.360;2023-05-20T00:56:10;100361.88;;;7.99;100.00
26487;BME280;14425;56.136;40.360;2023-05-20T00:58:37;100359.22;;;7.97;100.00
26487;BME280;14425;56.136;40.360;2023-05-20T01:01:02;100351.69;;;8.00;100.00
26487;BME280;14425;56.136;40.360;2023-05-20T01:03:28;100346.78;;;8.05;100.00
26487;BME280;14425;56.136;40.360;2023-05-20T01:05:54;100345.72;;;8.16;100.00
26487;BME280;14425;56.136;40.360;2023-05-20T01:08:21;100351.81;;;8.18;100.00
26487;BME280;14425;56.136;40.360;2023-05-20T01:10:50;100358.94;;;8.07;100.00
26487;BME280;14425;56.136;40.360;2023-05-20T01:13:21;100354.69;;;8.08;100.00
26487;BME280;14425;56.136;40.360;2023-05-20T01:15:51;100350.84;;;8.16;100.00
26487;BME280;14425;56.136;40.360;2023-05-20T01:18:22;100357.16;;;8.06;100.00
26487;BME280;14425;56.136;40.360;2023-05-20T01:20:52;100350.34;;;8.07;100.00
26487;BME280;14425;56.136;40.360;2023-05-20T01:23:18;100356.47;;;8.09;100.00
26487;BME280;14425;56.136;40.360;2023-05-20T01:25:44;100350.50;;;8.10;100.00
26487;BME280;14425;56.136;40.360;2023-05-20T01:28:10;100348.84;;;8.10;100.00
26487;BME280;14425;56.136;40.360;2023-05-20T01:30:48;100353.34;;;8.14;100.00
26487;BME280;14425;56.136;40.360;2023-05-20T01:33:17;100354.69;;;8.08;100.00
26487;BME280;14425;56.136;40.360;2023-05-20T01:35:44;100356.00;;;8.16;100.00
26487;BME280;14425;56.136;40.360;2023-05-20T01:38:11;100355.03;;;8.14;100.00
26487;BME280;14425;56.136;40.360;2023-05-20T01:40:38;100362.88;;;8.32;100.00
26487;BME280;14425;56.136;40.360;2023-05-20T01:43:04;100359.78;;;8.23;100.00
26487;BME280;14425;56.136;40.360;2023-05-20T01:45:30;100355.66;;;8.41;100.00
26487;BME280;14425;56.136;40.360;2023-05-20T01:47:56;100360.22;;;8.30;100.00
26487;BME280;14425;56.136;40.360;2023-05-20T01:50:21;100361.75;;;8.27;100.00
26487;BME280;14425;56.136;40.360;2023-05-20T01:52:47;100359.00;;;8.24;100.00
26487;BME280;14425;56.136;40.360;2023-05-20T01:55:12;100358.03;;;8.22;100.00
26487;BME280;14425;56.136;40.360;2023-05-20T01:57:37;100353.09;;;8.41;100.00
26487;BME280;14425;56.136;40.360;2023-05-20T02:00:03;100358.44;;;8.44;100.00
26487;BME280;14425;56.136;40.360;2023-05-20T02:02:32;100354.88;;;8.42;100.00
26487;BME280;14425;56.136;40.360;2023-05-20T02:04:57;100352.78;;;8.66;100.00
26487;BME280;14425;56.136;40.360;2023-05-20T02:07:22;100347.59;;;8.65;100.00
26487;BME280;14425;56.136;40.360;2023-05-20T02:09:48;100356.84;;;8.46;100.00
26487;BME280;14425;56.136;40.360;2023-05-20T02:12:13;100351.44;;;8.42;100.00
26487;BME280;14425;56.136;40.360;2023-05-20T02:14:43;100349.75;;;8.42;100.00
26487;BME280;14425;56.136;40.360;2023-05-20T02:17:10;100354.88;;;8.57;100.00
26487;BME280;14425;56.136;40.360;2023-05-20T02:19:36;100347.25;;;8.59;100.00
26487;BME280;14425;56.136;40.360;2023-05-20T02:22:01;100345.63;;;8.61;100.00
26487;BME280;14425;56.136;40.360;2023-05-20T02:24:27;100346.94;;;8.69;100.00
26487;BME280;14425;56.136;40.360;2023-05-20T02:26:52;100348.94;;;8.75;100.00
26487;BME280;14425;56.136;40.360;2023-05-20T02:29:20;100355.97;;;8.94;100.00
26487;BME280;14425;56.136;40.360;2023-05-20T02:31:47;100353.00;;;9.02;100.00
26487;BME280;14425;56.136;40.360;2023-05-20T02:34:17;100358.22;;;9.04;100.00
26487;BME280;14425;56.136;40.360;2023-05-20T02:36:43;100355.09;;;8.93;100.00
26487;BME280;14425;56.136;40.360;2023-05-20T02:39:08;100365.38;;;8.93;100.00
26487;BME280;14425;56.136;40.360;2023-05-20T02:41:34;100352.66;;;8.96;100.00
26487;BME280;14425;56.136;40.360;2023-05-20T02:43:59;100356.44;;;9.03;100.00
26487;BME280;14425;56.136;40.360;2023-05-20T02:46:25;100363.53;;;9.07;100.00
26487;BME280;14425;56.136;40.360;2023-05-20T02:48:50;100356.44;;;9.03;100.00
26487;BME280;14425;56.136;40.360;2023-05-20T02:51:16;100365.47;;;9.11;100.00
26487;BME280;14425;56.136;40.360;2023-05-20T02:53:41;100361.22;;;9.12;100.00
26487;BME280;14425;56.136;40.360;2023-05-20T02:56:07;100360.47;;;9.47;98.25
26487;BME280;14425;56.136;40.360;2023-05-20T02:58:36;100361.28;;;9.30;99.82
26487;BME280;14425;56.136;40.360;2023-05-20T03:01:02;100357.72;;;9.28;98.77
26487;BME280;14425;56.136;40.360;2023-05-20T03:03:27;100363.63;;;9.25;100.00
26487;BME280;14425;56.136;40.360;2023-05-20T03:05:53;100357.56;;;9.24;100.00
26487;BME280;14425;56.136;40.360;2023-05-20T03:08:20;100362.88;;;9.28;100.00
26487;BME280;14425;56.136;40.360;2023-05-20T03:10:46;100357.03;;;9.30;100.00
26487;BME280;14425;56.136;40.360;2023-05-20T03:13:11;100359.84;;;9.35;100.00
26487;BME280;14425;56.136;40.360;2023-05-20T03:15:40;100359.34;;;9.42;99.37
26487;BME280;14425;56.136;40.360;2023-05-20T03:18:07;100353.44;;;9.44;100.00
26487;BME280;14425;56.136;40.360;2023-05-20T03:20:33;100369.31;;;9.36;100.00
26487;BME280;14425;56.136;40.360;2023-05-20T03:23:03;100372.13;;;9.40;100.00
26487;BME280;14425;56.136;40.360;2023-05-20T03:25:29;100367.69;;;9.38;100.00
26487;BME280;14425;56.136;40.360;2023-05-20T03:27:55;100363.13;;;9.49;100.00
26487;BME280;14425;56.136;40.360;2023-05-20T03:30:23;100368.59;;;9.55;98.82
26487;BME280;14425;56.136;40.360;2023-05-20T03:32:48;100362.69;;;9.57;98.78
26487;BME280;14425;56.136;40.360;2023-05-20T03:35:14;100367.38;;;9.65;100.00
26487;BME280;14425;56.136;40.360;2023-05-20T03:37:40;100366.97;;;9.57;99.43
26487;BME280;14425;56.136;40.360;2023-05-20T03:40:06;100370.91;;;9.50;100.00
26487;BME280;14425;56.136;40.360;2023-05-20T03:42:33;100372.50;;;9.65;100.00
26487;BME280;14425;56.136;40.360;2023-05-20T03:44:59;100377.59;;;9.63;99.14
26487;BME280;14425;56.136;40.360;2023-05-20T03:47:26;100378.78;;;9.70;99.32
26487;BME280;14425;56.136;40.360;2023-05-20T03:49:51;100378.53;;;9.65;99.93
26487;BME280;14425;56.136;40.360;2023-05-20T03:52:17;100382.16;;;9.69;99.60
26487;BME280;14425;56.136;40.360;2023-05-20T03:54:43;100383.09;;;9.71;99.56
26487;BME280;14425;56.136;40.360;2023-05-20T03:57:08;100381.00;;;9.80;99.73
26487;BME280;14425;56.136;40.360;2023-05-20T03:59:35;100387.03;;;9.80;100.00
26487;BME280;14425;56.136;40.360;2023-05-20T04:02:01;100386.75;;;9.92;98.74
26487;BME280;14425;56.136;40.360;2023-05-20T04:04:27;100390.00;;;9.88;97.23
26487;BME280;14425;56.136;40.360;2023-05-20T04:06:53;100386.41;;;10.03;96.27
26487;BME280;14425;56.136;40.360;2023-05-20T04:09:19;100388.91;;;9.83;97.29
26487;BME280;14425;56.136;40.360;2023-05-20T04:11:44;100378.16;;;9.92;98.16
26487;BME280;14425;56.136;40.360;2023-05-20T04:14:10;100377.94;;;10.05;97.60
26487;BME280;14425;56.136;40.360;2023-05-20T04:16:36;100384.88;;;10.06;97.24
26487;BME280;14425;56.136;40.360;2023-05-20T04:19:02;100365.94;;;10.06;96.94
26487;BME280;14425;56.136;40.360;2023-05-20T04:21:28;100373.81;;;10.09;97.38
26487;BME280;14425;56.136;40.360;2023-05-20T04:23:53;100366.31;;;10.13;96.30
26487;BME280;14425;56.136;40.360;2023-05-20T04:26:19;100372.06;;;10.08;97.55
26487;BME280;14425;56.136;40.360;2023-05-20T04:28:45;100366.78;;;10.23;95.60
26487;BME280;14425;56.136;40.360;2023-05-20T04:31:13;100376.72;;;10.15;96.16
26487;BME280;14425;56.136;40.360;2023-05-20T04:33:39;100371.78;;;10.20;95.31
26487;BME280;14425;56.136;40.360;2023-05-20T04:36:06;100370.94;;;10.03;96.80
26487;BME280;14425;56.136;40.360;2023-05-20T04:38:32;100373.81;;;10.09;97.14
26487;BME280;14425;56.136;40.360;2023-05-20T04:40:58;100371.09;;;10.24;96.10
26487;BME280;14425;56.136;40.360;2023-05-20T04:43:25;100371.84;;;10.21;95.60
26487;BME280;14425;56.136;40.360;2023-05-20T04:45:54;100370.00;;;10.18;98.00
26487;BME280;14425;56.136;40.360;2023-05-20T04:48:20;100368.53;;;10.24;96.24
26487;BME280;14425;56.136;40.360;2023-05-20T04:50:47;100370.63;;;10.49;94.83
26487;BME280;14425;56.136;40.360;2023-05-20T04:53:14;100368.25;;;10.53;95.17
26487;BME280;14425;56.136;40.360;2023-05-20T04:55:40;100369.09;;;10.52;94.94
26487;BME280;14425;56.136;40.360;2023-05-20T04:58:05;100361.38;;;10.72;92.38
26487;BME280;14425;56.136;40.360;2023-05-20T05:00:32;100374.03;;;10.67;92.57
26487;BME280;14425;56.136;40.360;2023-05-20T05:02:59;100368.78;;;10.84;92.57
26487;BME280;14425;56.136;40.360;2023-05-20T05:05:25;100372.34;;;10.86;92.81
26487;BME280;14425;56.136;40.360;2023-05-20T05:07:50;100374.84;;;10.84;91.75
26487;BME280;14425;56.136;40.360;2023-05-20T05:10:16;100368.81;;;11.03;89.92
26487;BME280;14425;56.136;40.360;2023-05-20T05:12:41;100368.81;;;11.03;88.53
26487;BME280;14425;56.136;40.360;2023-05-20T05:15:07;100369.91;;;11.08;88.69
26487;BME280;14425;56.136;40.360;2023-05-20T05:17:33;100377.56;;;11.07;90.91
26487;BME280;14425;56.136;40.360;2023-05-20T05:19:58;100370.66;;;11.06;90.91
26487;BME280;14425;56.136;40.360;2023-05-20T05:22:24;100372.84;;;11.16;91.25
26487;BME280;14425;56.136;40.360;2023-05-20T05:24:49;100366.63;;;11.52;87.65
26487;BME280;14425;56.136;40.360;2023-05-20T05:27:15;100363.59;;;11.41;86.30
26487;BME280;14425;56.136;40.360;2023-05-20T05:29:41;100365.28;;;11.40;87.07
26487;BME280;14425;56.136;40.360;2023-05-20T05:32:06;100349.31;;;11.49;86.08
26487;BME280;14425;56.136;40.360;2023-05-20T05:34:32;100347.81;;;11.54;85.82
26487;BME280;14425;56.136;40.360;2023-05-20T05:36:57;100358.56;;;11.65;85.13
26487;BME280;14425;56.136;40.360;2023-05-20T05:39:23;100357.59;;;11.82;82.67
26487;BME280;14425;56.136;40.360;2023-05-20T05:41:48;100371.47;;;11.84;84.73
26487;BME280;14425;56.136;40.360;2023-05-20T05:44:14;100363.97;;;11.91;82.78
26487;BME280;14425;56.136;40.360;2023-05-20T05:46:40;100357.47;;;12.22;80.07
26487;BME280;14425;56.136;40.360;2023-05-20T05:49:05;100353.69;;;12.13;81.95
26487;BME280;14425;56.136;40.360;2023-05-20T05:51:31;100363.94;;;12.10;80.91
26487;BME280;14425;56.136;40.360;2023-05-20T05:53:56;100355.72;;;12.20;81.79
26487;BME280;14425;56.136;40.360;2023-05-20T05:56:22;100355.28;;;12.99;75.95
26487;BME280;14425;56.136;40.360;2023-05-20T05:58:48;100363.41;;;13.09;74.78
26487;BME280;14425;56.136;40.360;2023-05-20T06:01:13;100360.81;;;13.32;72.52
26487;BME280;14425;56.136;40.360;2023-05-20T06:03:41;100365.19;;;13.84;69.14
26487;BME280;14425;56.136;40.360;2023-05-20T06:06:07;100364.44;;;13.87;68.59
26487;BME280;14425;56.136;40.360;2023-05-20T06:08:32;100366.22;;;13.88;67.93
26487;BME280;14425;56.136;40.360;2023-05-20T06:10:58;100367.94;;;14.15;66.60
26487;BME280;14425;56.136;40.360;2023-05-20T06:13:24;100367.34;;;13.71;68.70
26487;BME280;14425;56.136;40.360;2023-05-20T06:15:49;100374.81;;;13.37;71.39
26487;BME280;14425;56.136;40.360;2023-05-20T06:18:15;100378.50;;;13.44;71.09
26487;BME280;14425;56.136;40.360;2023-05-20T06:20:40;100377.34;;;13.60;69.94
26487;BME280;14425;56.136;40.360;2023-05-20T06:23:06;100376.44;;;13.59;69.80
26487;BME280;14425;56.136;40.360;2023-05-20T06:25:32;100372.59;;;14.25;66.84
26487;BME280;14425;56.136;40.360;2023-05-20T06:27:57;100363.22;;;14.85;63.31
26487;BME280;14425;56.136;40.360;2023-05-20T06:30:23;100367.19;;;15.04;62.63
26487;BME280;14425;56.136;40.360;2023-05-20T06:32:48;100361.91;;;15.01;62.67
26487;BME280;14425;56.136;40.360;2023-05-20T06:35:14;100363.13;;;15.12;62.46
26487;BME280;14425;56.136;40.360;2023-05-20T06:37:39;100362.34;;;14.84;61.76
26487;BME280;14425;56.136;40.360;2023-05-20T06:40:06;100360.47;;;15.10;61.22
26487;BME280;14425;56.136;40.360;2023-05-20T06:42:31;100358.09;;;15.18;61.26
26487;BME280;14425;56.136;40.360;2023-05-20T06:44:57;100348.50;;;15.47;60.68
26487;BME280;14425;56.136;40.360;2023-05-20T06:47:22;100354.59;;;16.92;56.71
26487;BME280;14425;56.136;40.360;2023-05-20T06:49:48;100344.41;;;16.63;56.09
26487;BME280;14425;56.136;40.360;2023-05-20T06:52:13;100350.25;;;16.17;56.60
26487;BME280;14425;56.136;40.360;2023-05-20T06:54:39;100356.19;;;16.48;55.49
26487;BME280;14425;56.136;40.360;2023-05-20T06:57:07;100353.47;;;15.71;57.13
26487;BME280;14425;56.136;40.360;2023-05-20T06:59:34;100345.19;;;15.86;58.80
26487;BME280;14425;56.136;40.360;2023-05-20T07:02:00;100344.69;;;16.01;59.80
26487;BME280;14425;56.136;40.360;2023-05-20T07:04:26;100351.00;;;16.11;57.78
26487;BME280;14425;56.136;40.360;2023-05-20T07:06:52;100340.25;;;16.72;56.34
26487;BME280;14425;56.136;40.360;2023-05-20T07:09:18;100346.19;;;15.92;57.78
26487;BME280;14425;56.136;40.360;2023-05-20T07:11:43;100351.41;;;15.92;57.62
26487;BME280;14425;56.136;40.360;2023-05-20T07:14:09;100341.69;;;15.84;57.86
26487;BME280;14425;56.136;40.360;2023-05-20T07:16:34;100346.31;;;15.96;57.30
26487;BME280;14425;56.136;40.360;2023-05-20T07:19:02;100347.63;;;16.14;56.82
26487;BME280;14425;56.136;40.360;2023-05-20T07:21:27;100340.47;;;16.43;55.71
26487;BME280;14425;56.136;40.360;2023-05-20T07:23:53;100349.75;;;16.32;57.03
26487;BME280;14425;56.136;40.360;2023-05-20T07:26:19;100342.28;;;16.09;56.88
26487;BME280;14425;56.136;40.360;2023-05-20T07:28:44;100340.16;;;15.93;56.61
26487;BME280;14425;56.136;40.360;2023-05-20T07:31:11;100331.84;;;16.46;56.07
26487;BME280;14425;56.136;40.360;2023-05-20T07:33:37;100334.25;;;16.76;54.69
26487;BME280;14425;56.136;40.360;2023-05-20T07:36:03;100333.09;;;17.03;54.15
26487;BME280;14425;56.136;40.360;2023-05-20T07:38:29;100333.44;;;16.80;53.92
26487;BME280;14425;56.136;40.360;2023-05-20T07:40:54;100331.41;;;17.06;53.25
26487;BME280;14425;56.136;40.360;2023-05-20T07:43:20;100337.75;;;17.19;53.87
26487;BME280;14425;56.136;40.360;2023-05-20T07:45:45;100332.75;;;17.31;53.37
26487;BME280;14425;56.136;40.360;2023-05-20T07:48:11;100328.06;;;17.12;53.47
26487;BME280;14425;56.136;40.360;2023-05-20T07:50:37;100334.31;;;16.79;54.47
26487;BME280;14425;56.136;40.360;2023-05-20T07:53:04;100344.22;;;16.94;53.01
26487;BME280;14425;56.136;40.360;2023-05-20T07:55:33;100328.13;;;17.62;51.39
26487;BME280;14425;56.136;40.360;2023-05-20T07:57:58;100333.31;;;17.13;52.34
26487;BME280;14425;56.136;40.360;2023-05-20T08:00:24;100334.50;;;16.85;52.95
26487;BME280;14425;56.136;40.360;2023-05-20T08:02:49;100330.50;;;17.04;53.54
26487;BME280;14425;56.136;40.360;2023-05-20T08:05:15;100341.56;;;16.92;51.87
26487;BME280;14425;56.136;40.360;2023-05-20T08:07:40;100338.81;;;17.29;52.26
26487;BME280;14425;56.136;40.360;2023-05-20T08:10:06;100333.94;;;17.47;52.35
26487;BME280;14425;56.136;40.360;2023-05-20T08:12:32;100329.59;;;17.95;51.01
26487;BME280;14425;56.136;40.360;2023-05-20T08:14:58;100335.75;;;18.00;49.74
26487;BME280;14425;56.136;40.360;2023-05-20T08:17:23;100328.94;;;18.08;50.75
26487;BME280;14425;56.136;40.360;2023-05-20T08:19:49;100333.84;;;17.90;50.26
26487;BME280;14425;56.136;40.360;2023-05-20T08:22:14;100342.81;;;17.57;51.12
26487;BME280;14425;56.136;40.360;2023-05-20T08:24:40;100334.16;;;17.58;50.55
26487;BME280;14425;56.136;40.360;2023-05-20T08:27:05;100328.28;;;17.71;51.00
26487;BME280;14425;56.136;40.360;2023-05-20T08:29:31;100326.47;;;17.67;50.38
26487;BME280;14425;56.136;40.360;2023-05-20T08:31:57;100329.81;;;17.13;52.04
26487;BME280;14425;56.136;40.360;2023-05-20T08:34:23;100320.97;;;17.05;51.86
26487;BME280;14425;56.136;40.360;2023-05-20T08:36:48;100321.16;;;17.14;52.09
26487;BME280;14425;56.136;40.360;2023-05-20T08:39:14;100318.63;;;17.17;51.24
26487;BME280;14425;56.136;40.360;2023-05-20T08:41:40;100315.31;;;17.27;51.28
26487;BME280;14425;56.136;40.360;2023-05-20T08:44:07;100312.97;;;17.90;49.53
26487;BME280;14425;56.136;40.360;2023-05-20T08:46:34;100306.22;;;18.01;48.34
26487;BME280;14425;56.136;40.360;2023-05-20T08:49:01;100312.44;;;17.61;48.62
26487;BME280;14425;56.136;40.360;2023-05-20T08:51:27;100303.44;;;17.42;48.55
26487;BME280;14425;56.136;40.360;2023-05-20T08:53:53;100303.91;;;17.69;49.31
26487;BME280;14425;56.136;40.360;2023-05-20T08:56:19;100300.56;;;18.32;48.16
26487;BME280;14425;56.136;40.360;2023-05-20T08:58:46;100304.88;;;18.31;47.12
26487;BME280;14425;56.136;40.360;2023-05-20T09:01:11;100303.91;;;18.23;47.18
26487;BME280;14425;56.136;40.360;2023-05-20T09:03:37;100305.50;;;18.12;46.85
26487;BME280;14425;56.136;40.360;2023-05-20T09:06:05;100306.09;;;19.25;45.92
26487;BME280;14425;56.136;40.360;2023-05-20T09:08:31;100301.94;;;19.49;44.96
26487;BME280;14425;56.136;40.360;2023-05-20T09:10:57;100300.75;;;20.09;43.54
26487;BME280;14425;56.136;40.360;2023-05-20T09:13:23;100307.44;;;18.91;44.11
26487;BME280;14425;56.136;40.360;2023-05-20T09:15:49;100311.78;;;18.89;44.46
26487;BME280;14425;56.136;40.360;2023-05-20T09:18:15;100303.13;;;18.93;44.32
26487;BME280;14425;56.136;40.360;2023-05-20T09:20:40;100316.28;;;18.36;45.47
26487;BME280;14425;56.136;40.360;2023-05-20T09:23:08;100310.69;;;18.71;45.00
26487;BME280;14425;56.136;40.360;2023-05-20T09:25:35;100303.84;;;18.18;46.60
26487;BME280;14425;56.136;40.360;2023-05-20T09:28:05;100308.00;;;18.67;46.00
26487;BME280;14425;56.136;40.360;2023-05-20T09:30:32;100301.88;;;18.68;46.43
26487;BME280;14425;56.136;40.360;2023-05-20T09:32:59;100299.59;;;18.91;45.74
26487;BME280;14425;56.136;40.360;2023-05-20T09:35:26;100296.00;;;19.61;44.24
26487;BME280;14425;56.136;40.360;2023-05-20T09:37:53;100296.81;;;19.56;43.76
26487;BME280;14425;56.136;40.360;2023-05-20T09:40:24;100303.59;;;18.64;45.27
26487;BME280;14425;56.136;40.360;2023-05-20T09:43:05;100309.38;;;18.40;45.40
26487;BME280;14425;56.136;40.360;2023-05-20T09:45:32;100309.16;;;18.26;46.08
26487;BME280;14425;56.136;40.360;2023-05-20T09:47:58;100314.28;;;18.18;46.66
26487;BME280;14425;56.136;40.360;2023-05-20T09:50:26;100306.31;;;18.10;46.32
26487;BME280;14425;56.136;40.360;2023-05-20T09:52:54;100306.16;;;18.58;45.13
26487;BME280;14425;56.136;40.360;2023-05-20T09:55:22;100303.66;;;18.07;45.71
26487;BME280;14425;56.136;40.360;2023-05-20T09:57:47;100299.00;;;17.88;45.52
26487;BME280;14425;56.136;40.360;2023-05-20T10:00:15;100303.22;;;17.31;46.82
26487;BME280;14425;56.136;40.360;2023-05-20T10:02:46;100309.69;;;17.06;47.96
26487;BME280;14425;56.136;40.360;2023-05-20T10:05:43;100312.22;;;17.01;47.28
26487;BME280;14425;56.136;40.360;2023-05-20T10:08:40;100326.09;;;17.02;45.01
26487;BME280;14425;56.136;40.360;2023-05-20T10:11:42;100311.94;;;16.87;45.17
26487;BME280;14425;56.136;40.360;2023-05-20T10:14:37;100317.56;;;16.68;46.81
26487;BME280;14425;56.136;40.360;2023-05-20T10:17:10;100321.84;;;16.64;47.98
26487;BME280;14425;56.136;40.360;2023-05-20T10:19:37;100328.81;;;16.65;47.53
26487;BME280;14425;56.136;40.360;2023-05-20T10:22:05;100332.41;;;16.70;47.99
26487;BME280;14425;56.136;40.360;2023-05-20T10:24:33;100324.59;;;16.70;47.28
26487;BME280;14425;56.136;40.360;2023-05-20T10:27:01;100334.09;;;16.70;46.53
26487;BME280;14425;56.136;40.360;2023-05-20T10:29:28;100326.59;;;16.84;46.21
26487;BME280;14425;56.136;40.360;2023-05-20T10:31:53;100336.50;;;16.98;45.84
26487;BME280;14425;56.136;40.360;2023-05-20T10:34:21;100332.34;;;16.67;46.29
26487;BME280;14425;56.136;40.360;2023-05-20T10:39:18;100342.06;;;16.76;46.74
26487;BME280;14425;56.136;40.360;2023-05-20T10:41:50;100349.50;;;16.59;46.44
26487;BME280;14425;56.136;40.360;2023-05-20T10:44:15;100340.78;;;16.58;45.68
26487;BME280;14425;56.136;40.360;2023-05-20T10:46:41;100345.09;;;16.56;45.53
26487;BME280;14425;56.136;40.360;2023-05-20T10:49:16;100348.34;;;16.46;45.73
26487;BME280;14425;56.136;40.360;2023-05-20T10:51:43;100355.81;;;16.31;46.19
26487;BME280;14425;56.136;40.360;2023-05-20T10:54:10;100356.38;;;16.17;47.22
26487;BME280;14425;56.136;40.360;2023-05-20T10:56:35;100365.31;;;16.29;46.61
26487;BME280;14425;56.136;40.360;2023-05-20T10:59:01;100364.81;;;16.07;47.15
26487;BME280;14425;56.136;40.360;2023-05-20T11:01:27;100365.09;;;16.19;46.54
26487;BME280;14425;56.136;40.360;2023-05-20T11:03:53;100368.44;;;16.14;45.37
26487;BME280;14425;56.136;40.360;2023-05-20T11:06:25;100371.41;;;16.29;45.58
26487;BME280;14425;56.136;40.360;2023-05-20T11:08:52;100363.09;;;16.46;43.29
26487;BME280;14425;56.136;40.360;2023-05-20T11:11:18;100364.88;;;16.48;42.86
26487;BME280;14425;56.136;40.360;2023-05-20T11:13:44;100363.94;;;16.44;43.27
26487;BME280;14425;56.136;40.360;2023-05-20T11:16:10;100373.09;;;16.27;43.29
26487;BME280;14425;56.136;40.360;2023-05-20T11:18:35;100381.28;;;16.07;45.20
26487;BME280;14425;56.136;40.360;2023-05-20T11:21:01;100380.88;;;15.91;46.41
26487;BME280;14425;56.136;40.360;2023-05-20T11:23:28;100394.53;;;15.51;46.63
26487;BME280;14425;56.136;40.360;2023-05-20T11:25:55;100384.63;;;15.70;46.62
26487;BME280;14425;56.136;40.360;2023-05-20T11:28:22;100382.97;;;15.74;46.68
26487;BME280;14425;56.136;40.360;2023-05-20T11:30:49;100385.63;;;15.43;46.20
26487;BME280;14425;56.136;40.360;2023-05-20T11:33:16;100390.84;;;15.43;47.04
26487;BME280;14425;56.136;40.360;2023-05-20T11:35:50;100382.81;;;15.36;47.30
26487;BME280;14425;56.136;40.360;2023-05-20T11:38:16;100399.75;;;15.21;48.37
26487;BME280;14425;56.136;40.360;2023-05-20T11:40:43;100393.53;;;15.46;48.41
26487;BME280;14425;56.136;40.360;2023-05-20T11:43:11;100397.50;;;15.03;49.02
26487;BME280;14425;56.136;40.360;2023-05-20T11:45:44;100403.19;;;14.90;49.12
26487;BME280;14425;56.136;40.360;2023-05-20T11:48:10;100409.94;;;14.85;48.36
26487;BME280;14425;56.136;40.360;2023-05-20T11:50:47;100414.72;;;15.00;47.66
26487;BME280;14425;56.136;40.360;2023-05-20T11:53:17;100408.66;;;15.29;47.16
26487;BME280;14425;56.136;40.360;2023-05-20T11:55:52;100412.22;;;15.33;47.30
26487;BME280;14425;56.136;40.360;2023-05-20T11:58:20;100407.75;;;14.99;48.38
26487;BME280;14425;56.136;40.360;2023-05-20T12:00:46;100410.88;;;14.87;48.54
26487;BME280;14425;56.136;40.360;2023-05-20T12:03:11;100405.00;;;14.94;48.50
26487;BME280;14425;56.136;40.360;2023-05-20T12:05:38;100414.44;;;14.90;48.95
26487;BME280;14425;56.136;40.360;2023-05-20T12:08:05;100428.44;;;14.95;49.38
26487;BME280;14425;56.136;40.360;2023-05-20T12:10:31;100409.66;;;14.75;50.03
26487;BME280;14425;56.136;40.360;2023-05-20T12:12:57;100413.56;;;14.35;51.35
26487;BME280;14425;56.136;40.360;2023-05-20T12:15:23;100422.59;;;14.21;52.36
26487;BME280;14425;56.136;40.360;2023-05-20T12:17:50;100427.78;;;14.21;52.49
26487;BME280;14425;56.136;40.360;2023-05-20T12:20:23;100433.31;;;14.04;54.11
26487;BME280;14425;56.136;40.360;2023-05-20T12:22:49;100427.38;;;14.09;54.00
26487;BME280;14425;56.136;40.360;2023-05-20T12:25:17;100420.84;;;13.94;55.12
26487;BME280;14425;56.136;40.360;2023-05-20T12:27:45;100422.69;;;13.97;56.13
26487;BME280;14425;56.136;40.360;2023-05-20T12:30:17;100420.31;;;14.03;56.84
26487;BME280;14425;56.136;40.360;2023-05-20T12:32:44;100426.66;;;13.87;57.09
26487;BME280;14425;56.136;40.360;2023-05-20T12:35:10;100425.22;;;13.70;57.47
26487;BME280;14425;56.136;40.360;2023-05-20T12:37:38;100418.78;;;13.84;57.05
26487;BME280;14425;56.136;40.360;2023-05-20T12:40:05;100416.50;;;13.93;57.28